Time;durP1;ratioP1;P1;durP2;ratioP2;P2;SDS_P1;SDS_P2;PMS_P1;PMS_P2;Temp;Humidity;BMP_temperature;BMP_pressure;BME280_temperature;BME280_humidity;BME280_pressure;Samples;Min_cycle;Max_cycle;Signal;HPM_P1;HPM_P2
2023/07/02 00:01:08;;;;;;;8.18;5.63;;;;;;;16.20;100.00;95682.34;5059667;28;20071;-73
2023/07/02 00:03:34;;;;;;;8.20;5.60;;;;;;;16.21;100.00;95686.66;5049660;28;20057;-74
2023/07/02 00:06:03;;;;;;;7.07;5.45;;;;;;;16.16;100.00;95674.03;5049668;28;20036;-74
2023/07/02 00:08:29;;;;;;;9.70;5.32;;;;;;;16.28;100.00;95675.78;5049219;28;20048;-74
2023/07/02 00:10:55;;;;;;;9.02;5.15;;;;;;;16.22;100.00;95675.31;5056755;28;20045;-74
2023/07/02 00:13:22;;;;;;;10.18;5.30;;;;;;;16.24;100.00;95678.50;5069124;28;20060;-73
2023/07/02 00:15:49;;;;;;;10.43;5.07;;;;;;;16.24;100.00;95666.72;5083663;28;20040;-74
2023/07/02 00:18:16;;;;;;;7.55;5.13;;;;;;;16.31;100.00;95670.34;5066953;28;20032;-74
2023/07/02 00:20:42;;;;;;;8.93;4.93;;;;;;;16.29;100.00;95669.13;5049331;28;20044;-73
2023/07/02 00:23:10;;;;;;;8.20;5.00;;;;;;;16.21;100.00;95670.19;5049291;28;20044;-74
2023/07/02 00:25:37;;;;;;;7.20;4.57;;;;;;;16.18;100.00;95674.44;5049324;28;20049;-74
2023/07/02 00:28:03;;;;;;;8.25;5.00;;;;;;;16.28;100.00;95676.56;5049332;28;20041;-75
2023/07/02 00:30:31;;;;;;;7.47;4.85;;;;;;;16.23;100.00;95690.63;5069099;28;20040;-74
2023/07/02 00:32:57;;;;;;;10.90;4.38;;;;;;;16.34;100.00;95688.84;5069576;28;20041;-74
2023/07/02 00:35:23;;;;;;;6.55;4.40;;;;;;;16.42;100.00;95685.00;5065773;28;20053;-74
2023/07/02 00:37:50;;;;;;;5.97;4.30;;;;;;;16.40;100.00;95679.09;5049595;28;20052;-74
2023/07/02 00:40:18;;;;;;;8.10;3.85;;;;;;;16.40;100.00;95681.84;5049215;28;20048;-73
2023/07/02 00:42:44;;;;;;;5.43;3.95;;;;;;;16.25;100.00;95682.81;5055558;28;20044;-73
2023/07/02 00:45:11;;;;;;;6.28;3.10;;;;;;;16.47;100.00;95688.59;5073840;28;20056;-74
2023/07/02 00:47:37;;;;;;;7.90;3.90;;;;;;;16.39;100.00;95690.44;5064349;28;20056;-73
2023/07/02 00:50:05;;;;;;;8.05;3.70;;;;;;;16.46;100.00;95681.53;5048683;28;20523;-75
2023/07/02 00:52:32;;;;;;;5.30;3.60;;;;;;;16.49;100.00;95680.78;5049050;28;20044;-74
2023/07/02 00:54:58;;;;;;;5.43;3.78;;;;;;;16.55;100.00;95684.78;5049134;28;20124;-74
2023/07/02 00:57:29;;;;;;;6.80;3.50;;;;;;;16.55;100.00;95695.75;5056864;28;20057;-73
2023/07/02 00:59:56;;;;;;;5.88;3.95;;;;;;;16.56;100.00;95692.66;5049203;28;20403;-73
2023/07/02 01:02:23;;;;;;;4.57;3.78;;;;;;;16.59;100.00;95696.59;5048606;28;20045;-74
2023/07/02 01:04:52;;;;;;;5.20;4.03;;;;;;;16.54;100.00;95699.69;5049369;28;20045;-75
2023/07/02 01:07:18;;;;;;;5.80;3.13;;;;;;;16.69;100.00;95695.97;5050817;28;20062;-74
2023/07/02 01:09:45;;;;;;;7.15;3.42;;;;;;;16.70;100.00;95692.84;5062758;28;20040;-74
2023/07/02 01:12:12;;;;;;;6.40;3.33;;;;;;;16.88;99.55;95695.06;5047978;28;20041;-74
2023/07/02 01:14:44;;;;;;;5.05;3.08;;;;;;;16.93;99.07;95700.22;5054450;28;20049;-74
2023/07/02 01:17:11;;;;;;;5.68;3.25;;;;;;;16.99;98.45;95690.47;5062831;28;20048;-74
2023/07/02 01:19:45;;;;;;;5.05;3.25;;;;;;;17.10;98.17;95698.84;5052758;28;20041;-74
2023/07/02 01:22:13;;;;;;;6.55;3.38;;;;;;;17.02;98.02;95697.16;5051753;28;20385;-74
2023/07/02 01:24:40;;;;;;;5.30;3.35;;;;;;;17.02;97.75;95695.22;5052289;28;20048;-73
2023/07/02 01:27:07;;;;;;;8.55;3.92;;;;;;;16.98;98.12;95697.16;5052902;28;20456;-74
2023/07/02 01:29:36;;;;;;;17.30;3.47;;;;;;;17.08;97.60;95690.19;5059416;28;20048;-74
2023/07/02 01:32:04;;;;;;;4.95;3.00;;;;;;;17.06;97.56;95698.78;5051741;28;20534;-75
2023/07/02 01:34:30;;;;;;;6.15;3.30;;;;;;;16.97;97.67;95692.03;5064642;28;20041;-74
2023/07/02 01:36:58;;;;;;;10.02;3.10;;;;;;;17.02;97.76;95692.47;5072234;28;20048;-74
2023/07/02 01:39:25;;;;;;;7.55;3.58;;;;;;;17.01;98.44;95687.34;5052335;28;20041;-74
2023/07/02 01:41:52;;;;;;;4.25;3.10;;;;;;;16.97;97.88;95694.78;5051924;28;20040;-74
2023/07/02 01:44:19;;;;;;;6.07;3.30;;;;;;;16.94;98.00;95697.09;5053784;28;20075;-74
2023/07/02 01:46:48;;;;;;;8.90;3.55;;;;;;;16.75;99.16;95699.19;5072267;28;20047;-74
2023/07/02 01:49:15;;;;;;;4.07;3.25;;;;;;;16.77;99.00;95692.19;5053543;28;20052;-74
2023/07/02 01:51:41;;;;;;;4.65;3.08;;;;;;;16.73;99.33;95694.09;5051931;28;20045;-74
2023/07/02 01:54:09;;;;;;;4.60;3.00;;;;;;;16.76;99.68;95696.09;5051576;28;20048;-74
2023/07/02 01:56:36;;;;;;;5.03;3.00;;;;;;;16.81;99.43;95698.53;5052034;28;20053;-74
2023/07/02 01:59:02;;;;;;;7.03;3.17;;;;;;;16.74;99.34;95698.41;5051745;28;20037;-74
2023/07/02 02:01:28;;;;;;;5.95;2.75;;;;;;;16.68;100.00;95694.38;5055613;28;20045;-73
2023/07/02 02:03:55;;;;;;;4.10;2.80;;;;;;;16.70;99.67;95698.34;5071842;28;20040;-74
2023/07/02 02:06:21;;;;;;;6.55;2.92;;;;;;;16.68;99.76;95710.88;5063561;28;20571;-74
2023/07/02 02:08:48;;;;;;;5.15;2.90;;;;;;;16.64;100.00;95704.53;5069085;28;20059;-74
2023/07/02 02:11:16;;;;;;;5.35;2.60;;;;;;;16.65;99.75;95714.34;5073832;28;20048;-74
2023/07/02 02:13:42;;;;;;;3.17;2.60;;;;;;;16.73;98.62;95712.53;5062352;28;20045;-73
2023/07/02 02:16:09;;;;;;;4.07;2.63;;;;;;;16.71;99.06;95715.66;5056545;28;20056;-74
2023/07/02 02:18:35;;;;;;;6.43;2.20;;;;;;;16.61;99.40;95705.28;5067855;28;20048;-74
2023/07/02 02:21:02;;;;;;;5.60;2.35;;;;;;;16.60;99.39;95709.19;5057409;28;20132;-75
2023/07/02 02:23:28;;;;;;;4.55;2.38;;;;;;;16.63;99.87;95711.19;5074899;28;20048;-74
2023/07/02 02:25:54;;;;;;;4.65;2.53;;;;;;;16.65;99.21;95717.94;5072289;28;20548;-74
2023/07/02 02:28:22;;;;;;;2.67;1.80;;;;;;;16.77;98.69;95718.88;5063795;28;20416;-75
2023/07/02 02:30:49;;;;;;;4.50;2.03;;;;;;;16.83;97.92;95712.66;5060732;28;20051;-73
2023/07/02 02:33:15;;;;;;;4.93;2.50;;;;;;;16.68;98.55;95710.88;5064045;28;20041;-74
2023/07/02 02:35:42;;;;;;;3.08;2.17;;;;;;;16.76;98.15;95703.53;5083998;28;20044;-74
2023/07/02 02:38:08;;;;;;;6.25;2.22;;;;;;;16.69;98.62;95701.47;5077986;28;20041;-74
2023/07/02 02:40:35;;;;;;;3.03;2.10;;;;;;;16.63;99.37;95697.47;5058404;28;20056;-74
2023/07/02 02:46:24;;;;;;;5.10;2.10;;;;;;;16.71;98.56;95704.66;5066559;28;20060;-74
2023/07/02 02:48:51;;;;;;;3.40;1.88;;;;;;;16.75;98.41;95710.19;5070762;28;20048;-73
2023/07/02 02:51:18;;;;;;;3.10;2.05;;;;;;;16.56;99.54;95713.88;5059612;28;20049;-74
2023/07/02 02:53:44;;;;;;;4.65;2.38;;;;;;;16.61;99.59;95708.03;5057011;28;20052;-74
2023/07/02 02:56:11;;;;;;;5.63;2.25;;;;;;;16.59;100.00;95713.09;5052682;28;20045;-74
2023/07/02 02:58:37;;;;;;;2.80;2.00;;;;;;;16.65;100.00;95712.44;5064209;28;20051;-74
2023/07/02 03:01:10;;;;;;;3.22;2.00;;;;;;;16.66;100.00;95707.72;5069663;28;20049;-75
2023/07/02 03:03:44;;;;;;;2.72;1.90;;;;;;;16.62;100.00;95717.88;5050753;28;20045;-74
2023/07/02 03:06:11;;;;;;;3.05;2.00;;;;;;;16.73;99.22;95720.78;5068296;28;20032;-74
2023/07/02 03:08:37;;;;;;;3.67;2.10;;;;;;;16.70;100.00;95720.34;5070700;28;20044;-74
2023/07/02 03:11:04;;;;;;;2.40;1.83;;;;;;;16.71;99.64;95729.41;5061057;28;20044;-74
2023/07/02 03:13:30;;;;;;;10.45;2.45;;;;;;;16.64;100.00;95748.50;5063006;28;20044;-74
2023/07/02 03:15:56;;;;;;;14.50;3.40;;;;;;;16.49;100.00;95757.72;5088912;28;20040;-74
2023/07/02 03:18:23;;;;;;;4.22;2.50;;;;;;;16.31;100.00;95752.75;5070167;28;20404;-74
2023/07/02 03:20:51;;;;;;;4.72;2.40;;;;;;;15.67;100.00;95757.22;5069819;28;20546;-73
2023/07/02 03:23:17;;;;;;;4.70;3.13;;;;;;;15.16;100.00;95762.88;5069992;28;20045;-74
2023/07/02 03:25:44;;;;;;;5.47;3.00;;;;;;;14.96;100.00;95766.78;5056020;28;20045;-73
2023/07/02 03:28:10;;;;;;;7.93;3.58;;;;;;;14.95;100.00;95765.19;5067619;28;20047;-73
2023/07/02 03:30:36;;;;;;;5.38;3.10;;;;;;;15.07;100.00;95768.56;5056888;28;20048;-73
2023/07/02 03:33:03;;;;;;;5.75;3.67;;;;;;;15.16;100.00;95762.09;5049714;28;20049;-73
2023/07/02 03:35:30;;;;;;;8.00;3.28;;;;;;;15.23;100.00;95765.75;5050340;28;20060;-73
2023/07/02 03:37:58;;;;;;;8.57;3.55;;;;;;;15.32;100.00;95762.78;5049665;28;20416;-73
2023/07/02 03:40:24;;;;;;;5.03;3.75;;;;;;;15.35;100.00;95768.34;5052800;28;20052;-73
2023/07/02 03:42:51;;;;;;;4.72;3.40;;;;;;;15.38;100.00;95767.63;5063230;28;20044;-74
2023/07/02 03:45:17;;;;;;;5.03;3.15;;;;;;;15.46;100.00;95778.75;5049474;28;20045;-73
2023/07/02 03:47:44;;;;;;;6.95;3.10;;;;;;;15.45;100.00;95785.34;5050216;28;20040;-73
2023/07/02 03:50:11;;;;;;;6.72;3.67;;;;;;;15.41;100.00;95782.56;5049284;28;20044;-74
2023/07/02 03:52:37;;;;;;;6.05;3.10;;;;;;;15.43;100.00;95783.00;5049690;28;20056;-74
2023/07/02 03:55:06;;;;;;;7.70;3.25;;;;;;;15.45;100.00;95793.59;5066604;28;20047;-74
2023/07/02 03:57:33;;;;;;;3.80;2.83;;;;;;;15.39;100.00;95793.88;5070157;28;20041;-74
2023/07/02 03:59:59;;;;;;;6.10;2.92;;;;;;;15.30;100.00;95804.31;5069958;28;20044;-74
2023/07/02 04:02:26;;;;;;;5.00;2.60;;;;;;;15.11;100.00;95807.03;5065449;28;20067;-74
2023/07/02 04:04:52;;;;;;;4.15;2.80;;;;;;;15.09;100.00;95812.09;5049823;28;20041;-74
2023/07/02 04:07:18;;;;;;;5.80;2.60;;;;;;;15.00;100.00;95806.81;5049500;28;20114;-73
2023/07/02 04:09:45;;;;;;;3.75;2.65;;;;;;;14.85;100.00;95811.19;5049788;28;20041;-73
2023/07/02 04:12:13;;;;;;;4.88;2.80;;;;;;;14.79;100.00;95807.16;5050181;28;20048;-73
2023/07/02 04:14:39;;;;;;;3.63;2.80;;;;;;;14.61;100.00;95827.88;5075006;28;20051;-73
2023/07/02 04:17:06;;;;;;;7.38;2.78;;;;;;;14.65;100.00;95806.03;5069395;28;20053;-74
2023/07/02 04:19:33;;;;;;;4.88;2.92;;;;;;;14.63;100.00;95813.84;5069727;28;20123;-74
2023/07/02 04:21:59;;;;;;;6.40;2.92;;;;;;;14.57;100.00;95811.38;5060879;28;20048;-73
2023/07/02 04:24:26;;;;;;;5.07;2.90;;;;;;;14.45;100.00;95813.38;5068856;28;20051;-73
2023/07/02 04:26:53;;;;;;;7.45;3.20;;;;;;;14.33;100.00;95817.81;5054205;28;20037;-74
2023/07/02 04:29:21;;;;;;;4.53;2.85;;;;;;;14.26;100.00;95814.91;5049108;28;20053;-74
2023/07/02 04:31:47;;;;;;;6.15;2.92;;;;;;;14.17;100.00;95816.25;5054335;28;20041;-73
2023/07/02 04:34:14;;;;;;;6.53;3.70;;;;;;;14.17;100.00;95825.25;5050576;28;20044;-74
2023/07/02 04:36:40;;;;;;;6.68;3.35;;;;;;;14.19;100.00;95822.94;5070210;28;20041;-73
2023/07/02 04:39:07;;;;;;;5.43;3.00;;;;;;;14.10;100.00;95819.59;5069113;28;20040;-74
2023/07/02 04:41:33;;;;;;;5.72;3.08;;;;;;;14.05;100.00;95820.66;5069387;28;20040;-74
2023/07/02 04:44:00;;;;;;;4.60;3.20;;;;;;;14.10;100.00;95822.34;5053059;28;20044;-74
2023/07/02 04:46:28;;;;;;;7.05;3.33;;;;;;;14.23;100.00;95832.03;5075907;28;20506;-75
2023/07/02 04:48:55;;;;;;;8.52;2.95;;;;;;;14.33;100.00;95831.50;5071164;28;20678;-74
2023/07/02 04:51:22;;;;;;;3.80;2.70;;;;;;;14.57;100.00;95832.50;5072738;28;21553;-74
2023/07/02 04:53:48;;;;;;;4.03;2.90;;;;;;;14.58;100.00;95834.06;5064836;28;20044;-74
2023/07/02 04:56:15;;;;;;;7.30;3.25;;;;;;;14.62;100.00;95837.69;5072827;28;20412;-74
2023/07/02 04:58:41;;;;;;;5.32;2.80;;;;;;;14.69;100.00;95829.63;5073506;28;20045;-74
2023/07/02 05:01:08;;;;;;;6.10;2.85;;;;;;;14.52;100.00;95827.28;5071314;28;20484;-74
2023/07/02 05:03:35;;;;;;;4.72;2.60;;;;;;;14.52;100.00;95836.31;5065827;28;20032;-75
2023/07/02 05:06:02;;;;;;;5.13;2.78;;;;;;;14.41;100.00;95837.16;5056087;28;20067;-74
2023/07/02 05:08:28;;;;;;;4.55;3.00;;;;;;;14.33;100.00;95839.72;5052675;28;20056;-74
2023/07/02 05:10:55;;;;;;;5.20;2.92;;;;;;;14.43;100.00;95843.09;5053094;28;20044;-74
2023/07/02 05:13:21;;;;;;;5.20;3.30;;;;;;;14.58;100.00;95842.31;5064209;28;22762;-74
2023/07/02 05:15:48;;;;;;;5.82;3.20;;;;;;;14.55;100.00;95840.25;5088970;28;20040;-74
2023/07/02 05:18:15;;;;;;;5.70;3.58;;;;;;;14.62;100.00;95840.44;5054796;28;20071;-74
2023/07/02 05:20:43;;;;;;;6.35;3.15;;;;;;;14.54;100.00;95844.16;5052259;28;20045;-75
2023/07/02 05:23:09;;;;;;;4.97;2.58;;;;;;;14.66;100.00;95844.03;5060948;28;20518;-74
2023/07/02 05:25:36;;;;;;;4.00;2.85;;;;;;;14.59;100.00;95847.41;5052649;28;20041;-73
2023/07/02 05:28:02;;;;;;;5.78;2.80;;;;;;;14.54;100.00;95850.44;5069345;28;20041;-74
2023/07/02 05:30:29;;;;;;;8.20;3.30;;;;;;;14.46;100.00;95856.06;5068975;28;20045;-74
2023/07/02 05:32:55;;;;;;;6.55;3.28;;;;;;;14.47;100.00;95865.88;5052358;28;20041;-74
2023/07/02 05:35:22;;;;;;;5.57;3.38;;;;;;;14.50;100.00;95865.19;5052214;28;20053;-75
2023/07/02 05:37:49;;;;;;;7.13;3.65;;;;;;;14.64;100.00;95876.50;5052463;28;20052;-73
2023/07/02 05:40:16;;;;;;;4.32;3.08;;;;;;;14.57;100.00;95876.34;5051942;28;20460;-74
2023/07/02 05:42:43;;;;;;;6.28;3.30;;;;;;;14.51;100.00;95883.22;5057820;28;20036;-74
2023/07/02 05:45:11;;;;;;;5.78;3.60;;;;;;;14.54;100.00;95879.78;5086694;28;20125;-74
2023/07/02 05:47:37;;;;;;;5.55;3.30;;;;;;;14.61;100.00;95888.16;5060175;28;20037;-74
2023/07/02 05:50:05;;;;;;;5.90;3.40;;;;;;;14.50;100.00;95889.84;5051516;28;20567;-74
2023/07/02 05:52:31;;;;;;;7.63;3.58;;;;;;;14.53;100.00;95880.94;5051894;28;20045;-74
2023/07/02 05:54:59;;;;;;;5.22;3.10;;;;;;;14.53;100.00;95876.25;5052322;28;20527;-73
2023/07/02 05:57:25;;;;;;;6.75;3.72;;;;;;;14.65;100.00;95872.59;5051463;28;20040;-74
2023/07/02 05:59:52;;;;;;;5.43;3.42;;;;;;;14.77;100.00;95880.72;5051811;28;20447;-74
2023/07/02 06:02:18;;;;;;;8.20;3.38;;;;;;;14.79;100.00;95881.16;5051140;28;20053;-74
2023/07/02 06:04:45;;;;;;;5.47;3.40;;;;;;;14.96;100.00;95876.44;5066473;28;20040;-74
2023/07/02 06:07:11;;;;;;;4.82;3.00;;;;;;;15.14;100.00;95872.16;5071492;28;20131;-74
2023/07/02 06:09:38;;;;;;;7.05;3.47;;;;;;;15.12;100.00;95868.94;5071689;28;20142;-74
2023/07/02 06:12:06;;;;;;;5.22;3.00;;;;;;;15.10;100.00;95865.78;5054525;28;20523;-75
2023/07/02 06:14:33;;;;;;;5.95;3.38;;;;;;;15.24;100.00;95879.78;5071447;28;20047;-74
2023/07/02 06:17:00;;;;;;;9.57;3.83;;;;;;;15.25;100.00;95880.59;5063440;28;20141;-74
2023/07/02 06:19:27;;;;;;;7.40;3.10;;;;;;;15.24;99.23;95882.53;5051735;28;20400;-74
2023/07/02 06:21:53;;;;;;;6.57;2.97;;;;;;;15.19;99.97;95882.84;5051334;28;20048;-74
2023/07/02 06:24:20;;;;;;;3.63;2.72;;;;;;;15.23;100.00;95880.94;5050974;28;20492;-74
2023/07/02 06:26:46;;;;;;;5.15;3.10;;;;;;;15.13;99.73;95887.78;5051503;28;20064;-74
2023/07/02 06:29:14;;;;;;;8.38;3.22;;;;;;;15.22;100.00;95889.53;5051437;28;20045;-74
2023/07/02 06:31:40;;;;;;;5.53;3.40;;;;;;;15.08;100.00;95900.97;5051509;28;20052;-73
2023/07/02 06:34:08;;;;;;;4.50;3.17;;;;;;;15.15;100.00;95901.16;5050950;28;20045;-74
2023/07/02 06:36:34;;;;;;;6.22;3.25;;;;;;;15.03;100.00;95904.78;5051621;28;20127;-74
2023/07/02 06:39:01;;;;;;;6.05;3.72;;;;;;;14.88;100.00;95909.19;5051398;28;20044;-74
2023/07/02 06:41:27;;;;;;;4.95;3.20;;;;;;;14.95;100.00;95916.75;5050591;28;20052;-73
2023/07/02 06:43:54;;;;;;;6.35;3.47;;;;;;;14.95;100.00;95915.97;5052289;28;20053;-74
2023/07/02 06:46:22;;;;;;;5.68;3.20;;;;;;;14.88;100.00;95920.16;5050904;28;20049;-74
2023/07/02 06:48:48;;;;;;;6.57;3.83;;;;;;;14.81;100.00;95914.47;5051369;28;20411;-73
2023/07/02 06:51:15;;;;;;;8.25;3.45;;;;;;;14.94;100.00;95917.13;5064068;28;20048;-73
2023/07/02 06:53:42;;;;;;;4.88;3.10;;;;;;;15.07;100.00;95913.09;5051055;28;20048;-74
2023/07/02 06:56:10;;;;;;;10.30;3.63;;;;;;;15.18;100.00;95916.09;5050666;28;20041;-74
2023/07/02 06:58:36;;;;;;;4.97;3.05;;;;;;;15.27;100.00;95920.22;5050714;28;20606;-74
2023/07/02 07:01:03;;;;;;;5.85;3.53;;;;;;;15.26;100.00;95917.84;5050298;28;20052;-74
2023/07/02 07:03:31;;;;;;;4.72;3.40;;;;;;;15.25;100.00;95917.06;5050976;28;20052;-74
2023/07/02 07:05:58;;;;;;;8.23;3.95;;;;;;;15.17;100.00;95926.25;5050556;28;20119;-74
2023/07/02 07:08:24;;;;;;;5.35;3.38;;;;;;;15.35;100.00;95913.75;5049825;28;20056;-74
2023/07/02 07:10:51;;;;;;;6.72;3.85;;;;;;;15.37;99.99;95919.66;5050729;28;20041;-74
2023/07/02 07:13:17;;;;;;;7.18;3.63;;;;;;;15.27;99.65;95928.44;5049489;28;20045;-73
2023/07/02 07:15:44;;;;;;;5.90;3.38;;;;;;;15.34;99.58;95931.34;5052262;28;20456;-74
2023/07/02 07:18:10;;;;;;;7.28;3.50;;;;;;;15.46;99.85;95932.38;5050296;28;20040;-74
2023/07/02 07:20:40;;;;;;;6.43;3.60;;;;;;;15.45;99.62;95931.56;5050116;28;20045;-74
2023/07/02 07:23:06;;;;;;;7.47;3.42;;;;;;;15.54;99.82;95936.84;5050108;28;20765;-74
2023/07/02 07:25:33;;;;;;;4.57;3.40;;;;;;;15.50;99.06;95935.97;5050444;28;20063;-74
2023/07/02 07:28:00;;;;;;;6.43;3.50;;;;;;;15.59;97.68;95931.88;5050276;28;20045;-74
2023/07/02 07:30:27;;;;;;;6.50;3.60;;;;;;;15.70;98.05;95931.34;5050081;28;20033;-74
2023/07/02 07:32:54;;;;;;;8.07;3.75;;;;;;;15.45;97.35;95947.25;5050306;28;20041;-74
2023/07/02 07:35:22;;;;;;;7.50;3.30;;;;;;;15.44;97.44;95940.16;5049547;28;20049;-74
2023/07/02 07:37:51;;;;;;;5.68;3.25;;;;;;;15.18;96.89;95947.06;5050304;28;20045;-74
2023/07/02 07:40:17;;;;;;;6.78;3.90;;;;;;;15.07;100.00;95946.00;5049760;28;20065;-74
2023/07/02 07:42:44;;;;;;;6.75;3.95;;;;;;;15.14;100.00;95948.94;5050244;28;20045;-74
2023/07/02 07:45:11;;;;;;;6.93;3.80;;;;;;;15.25;100.00;95949.19;5052101;28;20045;-74
2023/07/02 07:47:38;;;;;;;6.57;3.72;;;;;;;15.31;100.00;95947.75;5049741;28;20098;-74
2023/07/02 07:50:09;;;;;;;7.13;3.92;;;;;;;15.40;100.00;95951.88;5049349;28;20490;-74
2023/07/02 07:52:36;;;;;;;8.38;4.38;;;;;;;15.29;100.00;95953.56;5050066;28;20552;-73
2023/07/02 07:55:05;;;;;;;7.53;4.55;;;;;;;15.07;100.00;95949.56;5049487;28;20045;-74
2023/07/02 07:57:31;;;;;;;7.85;4.38;;;;;;;15.07;100.00;95949.56;5050061;28;20041;-73
2023/07/02 07:59:58;;;;;;;10.88;5.32;;;;;;;14.88;100.00;95958.53;5049753;28;20049;-74
2023/07/02 08:02:24;;;;;;;11.98;5.30;;;;;;;14.89;100.00;95953.84;5048983;28;20052;-73
2023/07/02 08:04:51;;;;;;;9.10;5.40;;;;;;;15.01;100.00;95958.41;5049595;28;20044;-73
2023/07/02 08:07:17;;;;;;;7.00;4.78;;;;;;;15.20;100.00;95953.00;5049445;28;20052;-73
2023/07/02 08:09:44;;;;;;;9.20;4.93;;;;;;;15.26;100.00;95959.78;5049894;28;20041;-73
2023/07/02 08:12:12;;;;;;;7.55;4.30;;;;;;;15.19;100.00;95956.88;5049175;28;20037;-74
2023/07/02 08:14:38;;;;;;;6.50;4.53;;;;;;;15.10;100.00;95959.03;5049654;28;20396;-73
2023/07/02 08:17:05;;;;;;;9.10;5.65;;;;;;;15.12;100.00;95964.94;5049267;28;20405;-73
2023/07/02 08:19:31;;;;;;;6.60;4.97;;;;;;;15.19;100.00;95967.03;5049841;28;20041;-73
2023/07/02 08:21:58;;;;;;;6.40;5.22;;;;;;;15.22;100.00;95964.38;5049344;28;20052;-74
2023/07/02 08:24:24;;;;;;;7.20;4.50;;;;;;;15.25;100.00;95966.44;5053581;28;20048;-74
2023/07/02 08:26:51;;;;;;;7.95;5.47;;;;;;;15.28;100.00;95970.38;5056279;28;20052;-73
2023/07/02 08:29:18;;;;;;;9.10;5.38;;;;;;;15.26;100.00;95968.00;5055876;28;20060;-74
2023/07/02 08:31:45;;;;;;;5.32;4.32;;;;;;;15.19;100.00;95978.00;5055871;28;20045;-73
2023/07/02 08:34:11;;;;;;;6.30;4.35;;;;;;;15.27;100.00;95977.03;5055643;28;20052;-73
2023/07/02 08:36:38;;;;;;;7.15;4.03;;;;;;;15.43;100.00;95977.00;5056327;28;20052;-73
2023/07/02 08:39:04;;;;;;;7.88;4.43;;;;;;;15.32;100.00;95974.81;5056019;28;20041;-74
2023/07/02 08:41:31;;;;;;;6.63;3.70;;;;;;;15.39;100.00;95979.66;5039795;28;20496;-74
2023/07/02 08:43:59;;;;;;;6.30;3.80;;;;;;;15.26;100.00;95981.72;5060689;28;20059;-74
2023/07/02 08:46:27;;;;;;;5.72;3.47;;;;;;;15.35;100.00;95981.53;5054848;28;20045;-74
2023/07/02 08:48:54;;;;;;;6.60;3.17;;;;;;;15.40;100.00;95984.81;5056766;28;20048;-74
2023/07/02 08:51:20;;;;;;;7.80;4.18;;;;;;;15.31;100.00;95986.94;5057030;28;20055;-74
2023/07/02 08:53:47;;;;;;;7.45;4.57;;;;;;;15.28;100.00;95995.06;5062117;28;20045;-74
2023/07/02 08:56:13;;;;;;;8.73;4.38;;;;;;;15.24;100.00;95992.25;5061375;28;20057;-74
2023/07/02 08:58:40;;;;;;;4.45;3.50;;;;;;;15.26;100.00;95995.44;5061538;28;20487;-74
2023/07/02 09:01:08;;;;;;;9.20;4.20;;;;;;;15.23;100.00;96001.63;5060529;28;20045;-74
2023/07/02 09:03:37;;;;;;;5.22;3.97;;;;;;;15.28;100.00;96003.31;5060535;28;20127;-74
2023/07/02 09:06:04;;;;;;;6.05;4.38;;;;;;;15.29;100.00;96005.69;5061634;28;20400;-74
2023/07/02 09:08:33;;;;;;;8.25;4.28;;;;;;;15.14;100.00;96003.78;5063448;28;20048;-75
2023/07/02 09:11:10;;;;;;;7.10;4.65;;;;;;;15.26;100.00;95997.41;5063335;28;20044;-75
2023/07/02 09:13:43;;;;;;;8.40;4.03;;;;;;;15.19;100.00;95995.28;5064871;28;20037;-76
2023/07/02 09:16:20;;;;;;;7.60;4.60;;;;;;;15.33;100.00;96001.09;5066172;28;20037;-75
2023/07/02 09:19:00;;;;;;;5.90;4.07;;;;;;;15.50;100.00;95999.09;5047029;28;20049;-74
2023/07/02 09:21:28;;;;;;;7.32;4.68;;;;;;;15.65;100.00;96006.53;5065020;28;20048;-74
2023/07/02 09:23:55;;;;;;;6.07;4.20;;;;;;;15.77;100.00;95992.69;5064746;28;20045;-74
2023/07/02 09:26:21;;;;;;;7.97;4.75;;;;;;;15.87;100.00;95997.59;5059260;28;20124;-74
2023/07/02 09:28:48;;;;;;;5.90;4.30;;;;;;;16.05;100.00;95997.97;5056138;28;20512;-74
2023/07/02 09:31:15;;;;;;;7.68;4.60;;;;;;;16.16;100.00;95998.97;5055971;28;20041;-74
2023/07/02 09:33:41;;;;;;;5.22;3.90;;;;;;;16.30;100.00;95992.16;5055806;28;20033;-76
2023/07/02 09:36:09;;;;;;;8.55;3.70;;;;;;;16.20;97.60;95996.28;5051450;28;20052;-74
2023/07/02 09:38:36;;;;;;;4.80;3.50;;;;;;;16.20;96.46;95992.75;5052644;28;20056;-74
2023/07/02 09:41:02;;;;;;;5.05;2.67;;;;;;;15.99;94.98;95993.13;5052103;28;20048;-74
2023/07/02 09:43:31;;;;;;;5.75;3.10;;;;;;;16.03;94.54;95994.78;5052321;28;20052;-74
2023/07/02 09:45:58;;;;;;;5.97;3.13;;;;;;;15.97;94.34;95993.47;5052051;28;20049;-74
2023/07/02 09:48:27;;;;;;;5.05;3.53;;;;;;;16.07;100.00;95994.84;5051792;28;20057;-74
2023/07/02 09:50:54;;;;;;;4.85;2.83;;;;;;;16.22;100.00;95990.44;5052226;28;20036;-73
2023/07/02 09:53:22;;;;;;;4.63;3.20;;;;;;;16.41;99.82;95993.94;5052014;28;20068;-74
2023/07/02 09:55:48;;;;;;;4.88;3.55;;;;;;;16.49;97.82;95991.31;5051732;28;20045;-74
2023/07/02 09:58:16;;;;;;;5.63;2.58;;;;;;;16.53;96.32;95994.94;5051708;28;20053;-74
2023/07/02 10:00:43;;;;;;;4.35;3.25;;;;;;;16.35;92.89;95992.66;5052039;28;20044;-74
2023/07/02 10:03:09;;;;;;;10.02;3.58;;;;;;;16.35;94.73;95992.66;5051486;28;20048;-75
2023/07/02 10:05:36;;;;;;;4.85;2.83;;;;;;;16.56;94.33;95988.72;5051840;28;20040;-74
2023/07/02 10:08:13;;;;;;;4.60;2.90;;;;;;;16.67;92.62;95984.19;5051681;28;20132;-74
2023/07/02 10:10:41;;;;;;;6.30;3.20;;;;;;;16.65;92.97;95994.75;5051907;28;20041;-74
2023/07/02 10:13:08;;;;;;;7.05;3.70;;;;;;;16.68;93.22;95994.03;5051274;28;20040;-75
2023/07/02 10:15:37;;;;;;;6.32;4.03;;;;;;;16.73;94.83;95988.25;5057998;28;20416;-74
2023/07/02 10:18:05;;;;;;;6.97;3.90;;;;;;;16.81;94.10;95989.16;5051493;28;20132;-74
2023/07/02 10:20:35;;;;;;;6.55;4.03;;;;;;;16.83;93.14;95993.16;5051156;28;20076;-75
2023/07/02 10:23:03;;;;;;;8.15;4.10;;;;;;;16.76;91.70;95990.28;5050752;28;20057;-74
2023/07/02 10:25:31;;;;;;;7.82;4.10;;;;;;;16.77;90.30;95989.13;5051244;28;20408;-74
2023/07/02 10:28:00;;;;;;;7.05;3.97;;;;;;;16.87;89.26;95988.50;5051488;28;20048;-74
2023/07/02 10:30:34;;;;;;;5.45;3.60;;;;;;;17.00;89.81;95993.81;5051244;28;20114;-74
2023/07/02 10:33:18;;;;;;;8.00;4.20;;;;;;;17.00;89.90;95991.06;5051662;28;20049;-74
2023/07/02 10:35:48;;;;;;;8.75;4.25;;;;;;;16.94;89.90;95988.63;5051186;28;20041;-74
2023/07/02 10:38:16;;;;;;;6.05;4.13;;;;;;;16.82;90.47;95986.06;5051007;28;20045;-74
2023/07/02 10:40:43;;;;;;;8.10;4.13;;;;;;;16.74;91.58;95994.56;5051064;28;20045;-74
2023/07/02 10:43:10;;;;;;;6.60;3.75;;;;;;;16.85;91.17;95985.31;5050731;28;20048;-74
2023/07/02 10:45:37;;;;;;;8.52;4.32;;;;;;;16.88;90.65;95976.34;5054985;28;20049;-74
2023/07/02 10:48:05;;;;;;;7.18;4.13;;;;;;;16.99;89.54;95978.47;5056542;28;20049;-74
2023/07/02 10:50:32;;;;;;;8.98;4.07;;;;;;;16.99;91.25;95978.47;5050852;28;20053;-74
2023/07/02 10:52:59;;;;;;;6.88;4.45;;;;;;;16.93;91.17;95987.03;5051194;28;20110;-74
2023/07/02 10:55:27;;;;;;;7.38;5.00;;;;;;;16.91;90.24;95994.06;5050430;28;20048;-74
2023/07/02 10:58:04;;;;;;;8.75;6.03;;;;;;;16.85;91.24;95987.28;5051130;28;20053;-74
2023/07/02 11:00:32;;;;;;;7.40;4.85;;;;;;;16.80;90.14;95977.38;5050374;28;20043;-74
2023/07/02 11:02:59;;;;;;;6.80;4.70;;;;;;;16.95;92.99;95981.94;5050935;28;20094;-74
2023/07/02 11:05:25;;;;;;;8.10;5.20;;;;;;;17.05;92.88;95977.00;5050060;28;20048;-74
2023/07/02 11:07:56;;;;;;;7.82;4.93;;;;;;;17.10;92.92;95973.94;5050924;28;20041;-73
2023/07/02 11:10:24;;;;;;;6.93;4.78;;;;;;;17.04;91.41;95975.41;5049873;28;20454;-74
2023/07/02 11:12:50;;;;;;;9.60;5.15;;;;;;;17.08;91.95;95976.28;5050696;28;20488;-73
2023/07/02 11:15:18;;;;;;;7.70;5.18;;;;;;;17.25;91.01;95970.25;5057894;28;20072;-74
2023/07/02 11:17:46;;;;;;;8.98;5.25;;;;;;;17.39;90.15;95964.94;5050011;28;20037;-74
2023/07/02 11:20:14;;;;;;;12.02;5.85;;;;;;;17.53;88.41;95971.81;5051399;28;20044;-74
2023/07/02 11:22:41;;;;;;;9.25;5.60;;;;;;;17.75;93.31;95965.47;5051673;28;20114;-74
2023/07/02 11:25:14;;;;;;;8.50;5.53;;;;;;;17.96;85.31;95974.00;5051530;28;20106;-74
2023/07/02 11:27:40;;;;;;;12.90;5.75;;;;;;;17.97;82.34;95964.56;5051784;28;20071;-74
2023/07/02 11:30:08;;;;;;;9.48;5.22;;;;;;;18.26;89.10;95962.13;5050517;28;20041;-74